createdAt,value
2019-02-26T00:00:46.965Z,7.1
2019-02-26T00:01:50.475Z,7.0
2019-02-26T00:02:52.596Z,7.1
2019-02-26T00:03:53.000Z,6.9
2019-02-26T00:04:56.412Z,7.0
2019-02-26T00:05:59.456Z,7.0
2019-02-26T00:07:01.990Z,7.0
2019-02-26T00:08:04.992Z,7.0
2019-02-26T00:09:07.991Z,7.0
2019-02-26T00:10:10.999Z,6.9
2019-02-26T00:11:14.001Z,7.0
2019-02-26T00:12:19.937Z,6.9
2019-02-26T00:13:19.990Z,6.8
2019-02-26T00:14:24.756Z,6.9
2019-02-26T00:15:25.991Z,6.9
2019-02-26T00:16:28.986Z,6.9
2019-02-26T00:17:36.240Z,6.8
2019-02-26T00:18:34.993Z,6.8
2019-02-26T00:19:37.991Z,6.6
2019-02-26T00:20:41.418Z,6.7
2019-02-26T00:21:45.251Z,6.7
2019-02-26T00:22:47.026Z,6.7
2019-02-26T00:23:51.434Z,6.7
2019-02-26T00:24:52.992Z,6.7
2019-02-26T00:25:56.001Z,6.6
2019-02-26T00:27:00.976Z,6.6
2019-02-26T00:28:01.991Z,6.6
2019-02-26T00:29:06.167Z,6.5
2019-02-26T00:30:09.610Z,6.6
2019-02-26T00:31:11.231Z,6.6
2019-02-26T00:32:15.991Z,6.6
2019-02-26T00:33:18.967Z,6.5
2019-02-26T00:34:20.494Z,6.5
2019-02-26T00:35:24.863Z,6.4
2019-02-26T00:36:27.136Z,6.5
2019-02-26T00:37:30.639Z,6.5
2019-02-26T00:38:33.012Z,6.5
2019-02-26T00:39:35.502Z,6.5
2019-02-26T00:40:39.294Z,6.5
2019-02-26T00:41:41.492Z,6.5
2019-02-26T00:42:44.507Z,6.4
2019-02-26T00:43:51.154Z,6.3
2019-02-26T00:44:53.294Z,6.4
2019-02-26T00:45:55.707Z,6.3
2019-02-26T00:46:57.579Z,6.3
2019-02-26T00:47:59.507Z,6.3
2019-02-26T00:49:03.128Z,6.3
2019-02-26T00:50:07.163Z,6.2
2019-02-26T00:51:08.497Z,6.2
2019-02-26T00:52:13.176Z,6.2
2019-02-26T00:53:17.122Z,6.2
2019-02-26T00:54:20.180Z,6.1
2019-02-26T00:55:23.152Z,6.1
2019-02-26T00:56:25.243Z,6.1
2019-02-26T00:57:29.415Z,6.0
2019-02-26T00:58:32.077Z,6.1
2019-02-26T00:59:36.413Z,6.0
2019-02-26T01:00:36.508Z,6.0
2019-02-26T01:01:39.515Z,6.0
2019-02-26T01:02:42.498Z,6.1
2019-02-26T01:03:46.972Z,5.9
2019-02-26T01:04:50.784Z,6.0
2019-02-26T01:05:51.508Z,5.9
2019-02-26T01:06:54.501Z,5.9
2019-02-26T01:07:57.511Z,5.9
2019-02-26T01:09:01.969Z,5.8
2019-02-26T01:10:03.516Z,5.9
2019-02-26T01:11:08.273Z,5.8
2019-02-26T01:12:11.312Z,5.8
2019-02-26T01:13:12.503Z,5.8
2019-02-26T01:14:15.774Z,5.9
2019-02-26T01:15:18.508Z,5.9
2019-02-26T01:16:21.506Z,5.9
2019-02-26T01:17:24.505Z,5.9
2019-02-26T01:18:28.861Z,5.9
2019-02-26T01:19:32.011Z,6.0
2019-02-26T01:20:33.497Z,5.9
2019-02-26T01:21:37.895Z,5.8
2019-02-26T01:22:40.324Z,5.9
2019-02-26T01:23:42.499Z,5.8
2019-02-26T01:24:45.505Z,5.8
2019-02-26T01:25:48.503Z,5.8
2019-02-26T01:26:51.508Z,5.9
2019-02-26T01:27:55.835Z,5.8
2019-02-26T01:28:58.623Z,5.8
2019-02-26T01:30:03.215Z,5.7
2019-02-26T01:31:04.968Z,5.8
2019-02-26T01:32:08.921Z,5.8
2019-02-26T01:33:09.776Z,5.7
2019-02-26T01:34:13.686Z,5.7
2019-02-26T01:35:15.512Z,5.7
2019-02-26T01:36:20.418Z,5.7
2019-02-26T01:37:21.510Z,5.7
2019-02-26T01:38:24.507Z,5.8
2019-02-26T01:39:27.502Z,5.8
2019-02-26T01:40:30.502Z,5.8
2019-02-26T01:41:33.531Z,5.9
2019-02-26T01:42:36.508Z,5.9
2019-02-26T01:43:39.524Z,5.9
2019-02-26T01:44:44.134Z,5.9
2019-02-26T01:45:46.267Z,5.8
2019-02-26T01:46:48.521Z,5.9
2019-02-26T01:47:52.813Z,5.8
2019-02-26T01:48:55.197Z,5.8
2019-02-26T01:49:59.297Z,5.8
2019-02-26T01:51:01.172Z,5.9
2019-02-26T01:52:03.525Z,5.9
2019-02-26T01:53:06.504Z,5.9
2019-02-26T01:54:10.358Z,5.8
2019-02-26T01:55:12.508Z,5.8
2019-02-26T01:56:17.675Z,5.9
2019-02-26T01:57:18.515Z,5.7
2019-02-26T01:58:21.649Z,5.8
2019-02-26T01:59:24.533Z,5.7
2019-02-26T02:00:27.518Z,5.6
2019-02-26T02:01:30.513Z,5.7
2019-02-26T02:02:33.511Z,5.7
2019-02-26T02:03:36.512Z,5.7
2019-02-26T02:04:41.119Z,5.6
2019-02-26T02:05:43.290Z,5.7
2019-02-26T02:06:45.507Z,5.6
2019-02-26T02:07:49.595Z,5.7
2019-02-26T02:08:53.572Z,5.6
2019-02-26T02:09:55.663Z,5.7
2019-02-26T02:10:59.347Z,5.6
2019-02-26T02:12:02.043Z,5.7
2019-02-26T02:13:04.775Z,5.7
2019-02-26T02:14:08.053Z,5.6
2019-02-26T02:15:10.041Z,5.6
2019-02-26T02:16:12.525Z,5.6
2019-02-26T02:17:15.512Z,5.7
2019-02-26T02:18:20.161Z,5.6
2019-02-26T02:19:23.535Z,5.6
2019-02-26T02:20:24.529Z,5.6
2019-02-26T02:21:30.415Z,5.5
2019-02-26T02:22:30.522Z,5.5
2019-02-26T02:23:33.587Z,5.5
2019-02-26T02:24:38.983Z,5.5
2019-02-26T02:25:40.894Z,5.5
2019-02-26T02:26:45.294Z,5.5
2019-02-26T02:27:47.566Z,5.4
2019-02-26T02:28:48.514Z,5.3
2019-02-26T02:29:52.947Z,5.4
2019-02-26T02:30:54.523Z,5.4
2019-02-26T02:31:59.517Z,5.4
2019-02-26T02:33:02.073Z,5.4
2019-02-26T02:34:03.534Z,5.4
2019-02-26T02:35:06.860Z,5.4
2019-02-26T02:36:11.658Z,5.3
2019-02-26T02:37:12.534Z,5.2
2019-02-26T02:38:19.533Z,5.2
2019-02-26T02:39:20.769Z,5.3
2019-02-26T02:40:21.539Z,5.2
2019-02-26T02:41:24.538Z,5.3
2019-02-26T02:42:27.518Z,5.2
2019-02-26T02:43:30.528Z,5.2
2019-02-26T02:44:33.525Z,5.1
2019-02-26T02:45:36.541Z,5.1
2019-02-26T02:46:41.689Z,5.2
2019-02-26T02:47:42.531Z,5.1
2019-02-26T02:48:45.528Z,5.1
2019-02-26T02:49:48.517Z,5.1
2019-02-26T02:50:51.520Z,5.1
2019-02-26T02:51:54.534Z,5.1
2019-02-26T02:52:59.646Z,5.0
2019-02-26T02:54:00.539Z,5.1
2019-02-26T02:55:04.553Z,5.1
2019-02-26T02:56:09.206Z,5.0
2019-02-26T02:57:09.987Z,5.0
2019-02-26T02:58:13.133Z,4.9
2019-02-26T02:59:16.553Z,4.9
2019-02-26T03:00:20.624Z,4.9
2019-02-26T03:01:24.427Z,4.8
2019-02-26T03:02:24.521Z,4.8
2019-02-26T03:03:27.525Z,4.8
2019-02-26T03:04:31.715Z,4.8
2019-02-26T03:05:35.111Z,4.8
2019-02-26T03:06:38.626Z,4.8
2019-02-26T03:07:39.550Z,4.7
2019-02-26T03:08:45.028Z,4.9
2019-02-26T03:09:45.764Z,4.8
2019-02-26T03:10:48.528Z,4.7
2019-02-26T03:11:53.023Z,4.8
2019-02-26T03:12:57.452Z,4.7
2019-02-26T03:13:57.528Z,4.6
2019-02-26T03:15:02.249Z,4.8
2019-02-26T03:16:03.542Z,4.7
2019-02-26T03:17:08.347Z,4.6
2019-02-26T03:18:11.953Z,4.7
2019-02-26T03:19:14.412Z,4.6
2019-02-26T03:20:15.540Z,4.7
2019-02-26T03:21:20.167Z,4.7
2019-02-26T03:22:21.770Z,4.5
2019-02-26T03:23:24.537Z,4.6
2019-02-26T03:24:28.888Z,4.6
2019-02-26T03:25:30.537Z,4.5
2019-02-26T03:26:33.529Z,4.4
2019-02-26T03:27:36.892Z,4.6
2019-02-26T03:28:41.789Z,4.6
2019-02-26T03:29:42.535Z,4.5
2019-02-26T03:30:45.524Z,4.4
2019-02-26T03:31:54.681Z,4.4
2019-02-26T03:32:58.503Z,4.4
2019-02-26T03:34:00.038Z,4.5
2019-02-26T03:35:02.038Z,4.4
2019-02-26T03:36:00.553Z,4.4
2019-02-26T03:37:05.348Z,4.5
2019-02-26T03:38:06.538Z,4.4
2019-02-26T03:39:09.538Z,4.4
2019-02-26T03:40:12.533Z,4.3
2019-02-26T03:41:16.681Z,4.4
2019-02-26T03:42:19.107Z,4.4
2019-02-26T03:43:21.530Z,4.2
2019-02-26T03:44:24.534Z,4.2
2019-02-26T03:45:27.532Z,4.3
2019-02-26T03:46:30.536Z,4.3
2019-02-26T03:47:33.527Z,4.2
2019-02-26T03:48:36.538Z,4.2
2019-02-26T03:49:41.751Z,4.2
2019-02-26T03:50:44.585Z,4.1
2019-02-26T03:51:45.549Z,4.1
2019-02-26T03:52:48.553Z,4.1
2019-02-26T03:53:51.534Z,4.1
2019-02-26T03:54:54.658Z,4.2
2019-02-26T03:56:01.950Z,4.1
2019-02-26T03:57:00.550Z,4.2
2019-02-26T03:58:03.550Z,4.2
2019-02-26T03:59:08.554Z,4.2
2019-02-26T04:00:11.243Z,4.2
2019-02-26T04:01:13.619Z,4.1
2019-02-26T04:02:17.452Z,4.2
2019-02-26T04:03:18.540Z,4.1
2019-02-26T04:04:22.943Z,4.1
2019-02-26T04:05:24.543Z,4.1
2019-02-26T04:06:27.542Z,4.1
2019-02-26T04:07:33.143Z,4.0
2019-02-26T04:08:33.542Z,4.0
2019-02-26T04:09:39.136Z,4.1
2019-02-26T04:10:39.542Z,3.9
2019-02-26T04:11:45.624Z,4.0
2019-02-26T04:12:48.731Z,3.9
2019-02-26T04:13:49.501Z,4.0
2019-02-26T04:14:51.533Z,3.9
2019-02-26T04:15:57.118Z,4.0
2019-02-26T04:16:58.670Z,3.8
2019-02-26T04:18:00.549Z,3.9
2019-02-26T04:19:05.884Z,3.9
2019-02-26T04:20:06.538Z,3.9
2019-02-26T04:21:11.885Z,3.8
2019-02-26T04:22:13.140Z,3.8
2019-02-26T04:23:18.668Z,3.8
2019-02-26T04:24:18.550Z,3.8
2019-02-26T04:25:22.150Z,3.8
2019-02-26T04:26:26.189Z,3.8
2019-02-26T04:27:28.245Z,3.8
2019-02-26T04:28:32.882Z,3.7
2019-02-26T04:29:35.449Z,3.8
2019-02-26T04:30:38.927Z,3.8
2019-02-26T04:31:43.559Z,3.8
2019-02-26T04:32:43.679Z,3.8
2019-02-26T04:33:45.552Z,3.7
2019-02-26T04:34:51.194Z,3.7
2019-02-26T04:35:52.834Z,3.7
2019-02-26T04:36:54.540Z,3.7
2019-02-26T04:37:58.449Z,3.6
2019-02-26T04:39:00.538Z,3.7
2019-02-26T04:40:05.342Z,3.6
2019-02-26T04:41:09.368Z,3.6
2019-02-26T04:42:11.418Z,3.7
2019-02-26T04:43:12.918Z,3.7
2019-02-26T04:44:15.573Z,3.7
2019-02-26T04:45:18.536Z,3.5
2019-02-26T04:46:21.542Z,3.6
2019-02-26T04:47:26.673Z,3.5
2019-02-26T04:48:29.151Z,3.6
2019-02-26T04:49:33.105Z,3.5
2019-02-26T04:50:35.661Z,3.5
2019-02-26T04:51:39.092Z,3.5
2019-02-26T04:52:41.341Z,3.5
2019-02-26T04:53:42.544Z,3.5
2019-02-26T04:54:45.545Z,3.5
2019-02-26T04:55:48.549Z,3.6
2019-02-26T04:56:51.541Z,3.5
2019-02-26T04:57:54.549Z,3.6
2019-02-26T04:58:57.552Z,3.5
2019-02-26T05:00:01.358Z,3.6
2019-02-26T05:01:04.786Z,3.5
2019-02-26T05:02:06.545Z,3.5
2019-02-26T05:03:11.829Z,3.5
2019-02-26T05:04:12.561Z,3.5
2019-02-26T05:05:15.545Z,3.5
2019-02-26T05:06:18.544Z,3.5
2019-02-26T05:07:21.552Z,3.5
2019-02-26T05:08:24.556Z,3.5
2019-02-26T05:09:29.746Z,3.6
2019-02-26T05:10:32.311Z,3.5
2019-02-26T05:11:37.135Z,3.5
2019-02-26T05:12:37.921Z,3.5
2019-02-26T05:13:39.559Z,3.5
2019-02-26T05:14:42.553Z,3.5
2019-02-26T05:15:45.546Z,3.5
2019-02-26T05:16:48.561Z,3.4
2019-02-26T05:17:51.540Z,3.5
2019-02-26T05:18:54.930Z,3.4
2019-02-26T05:19:57.553Z,3.4
2019-02-26T05:21:04.184Z,3.4
2019-02-26T05:22:06.879Z,3.4
2019-02-26T05:23:07.562Z,3.4
2019-02-26T05:24:12.428Z,3.4
2019-02-26T05:25:16.354Z,3.4
2019-02-26T05:26:18.748Z,3.3
2019-02-26T05:27:22.161Z,3.3
2019-02-26T05:28:22.548Z,3.3
2019-02-26T05:29:25.558Z,3.3
2019-02-26T05:30:28.558Z,3.3
2019-02-26T05:31:33.206Z,3.3
2019-02-26T05:32:35.587Z,3.3
2019-02-26T05:33:37.555Z,3.3
2019-02-26T05:34:42.690Z,3.3
2019-02-26T05:35:45.963Z,3.3
2019-02-26T05:36:46.563Z,3.2
2019-02-26T05:37:49.550Z,3.2
2019-02-26T05:38:54.643Z,3.3
2019-02-26T05:39:55.555Z,3.2
2019-02-26T05:40:58.549Z,3.3
2019-02-26T05:42:03.199Z,3.3
2019-02-26T05:43:06.420Z,3.2
2019-02-26T05:44:10.287Z,3.2
2019-02-26T05:45:10.553Z,3.2
2019-02-26T05:46:15.684Z,3.3
2019-02-26T05:47:18.661Z,3.2
2019-02-26T05:48:21.273Z,3.3
2019-02-26T05:49:22.556Z,3.2
2019-02-26T05:50:25.559Z,3.2
2019-02-26T05:51:31.962Z,3.2
2019-02-26T05:52:33.211Z,3.2
2019-02-26T05:53:34.609Z,3.3
2019-02-26T05:54:37.569Z,3.2
2019-02-26T05:55:43.812Z,3.3
2019-02-26T05:56:46.113Z,3.3
2019-02-26T05:57:46.563Z,3.3
2019-02-26T05:58:49.563Z,3.3
2019-02-26T05:59:52.561Z,3.3
2019-02-26T06:00:55.571Z,3.2
2019-02-26T06:01:58.563Z,3.2
2019-02-26T06:03:03.180Z,3.2
2019-02-26T06:04:06.403Z,3.2
2019-02-26T06:05:07.563Z,3.2
2019-02-26T06:06:10.564Z,3.1
2019-02-26T06:07:13.647Z,3.1
2019-02-26T06:08:16.564Z,3.3
2019-02-26T06:09:20.155Z,3.1
2019-02-26T06:10:24.422Z,3.2
2019-02-26T06:11:28.350Z,3.2
2019-02-26T06:12:32.413Z,3.1
2019-02-26T06:13:32.439Z,3.1
2019-02-26T06:14:36.123Z,3.2
2019-02-26T06:15:37.556Z,3.2
2019-02-26T06:16:40.576Z,3.1
2019-02-26T06:17:45.708Z,3.1
2019-02-26T06:18:48.836Z,3.1
2019-02-26T06:19:49.575Z,3.2
2019-02-26T06:20:53.529Z,3.1
2019-02-26T06:21:56.629Z,3.1
2019-02-26T06:22:58.566Z,3.1
2019-02-26T06:24:01.574Z,3.2
2019-02-26T06:25:09.601Z,3.3
2019-02-26T06:26:10.776Z,3.3
2019-02-26T06:27:13.116Z,3.2
2019-02-26T06:28:15.423Z,3.3
2019-02-26T06:29:20.060Z,3.2
2019-02-26T06:30:19.560Z,3.3
2019-02-26T06:31:24.725Z,3.1
2019-02-26T06:32:30.005Z,3.3
2019-02-26T06:33:31.705Z,3.2
2019-02-26T06:34:31.561Z,3.1
2019-02-26T06:35:35.896Z,3.2
2019-02-26T06:36:37.571Z,3.1
2019-02-26T06:37:40.558Z,3.1
2019-02-26T06:38:43.576Z,3.2
2019-02-26T06:39:50.503Z,3.1
2019-02-26T06:40:51.349Z,3.2
2019-02-26T06:41:52.571Z,3.3
2019-02-26T06:42:55.575Z,3.3
2019-02-26T06:43:58.585Z,3.3
2019-02-26T06:45:03.414Z,3.3
2019-02-26T06:46:42.496Z,3.3
2019-02-26T06:47:45.532Z,3.3
2019-02-26T06:48:48.430Z,3.3
2019-02-26T06:49:52.729Z,3.3
2019-02-26T06:50:55.654Z,3.3
2019-02-26T06:51:57.429Z,3.3
2019-02-26T06:53:04.421Z,3.3
2019-02-26T06:54:03.510Z,3.2
2019-02-26T06:55:07.785Z,3.3
2019-02-26T06:56:09.435Z,3.3
2019-02-26T06:57:12.434Z,3.4
2019-02-26T06:58:16.425Z,3.3
2019-02-26T06:59:19.452Z,3.4
2019-02-26T07:00:24.586Z,3.4
2019-02-26T07:01:25.444Z,3.5
2019-02-26T07:02:28.952Z,3.5
2019-02-26T07:03:32.431Z,3.5
2019-02-26T07:04:35.440Z,3.5
2019-02-26T07:05:38.478Z,3.5
2019-02-26T07:06:41.452Z,3.6
2019-02-26T07:07:44.436Z,3.5
2019-02-26T07:08:48.833Z,3.6
2019-02-26T07:09:50.446Z,3.6
2019-02-26T07:10:53.451Z,3.6
2019-02-26T07:11:56.441Z,3.6
2019-02-26T07:12:59.434Z,3.6
2019-02-26T07:14:03.626Z,3.6
2019-02-26T07:15:05.446Z,3.7
2019-02-26T07:16:08.435Z,3.7
2019-02-26T07:17:11.434Z,3.6
2019-02-26T07:18:17.186Z,3.6
2019-02-26T07:19:17.437Z,3.6
2019-02-26T07:20:20.434Z,3.5
2019-02-26T07:21:23.436Z,3.7
2019-02-26T07:22:26.438Z,3.7
2019-02-26T07:23:29.795Z,3.6
2019-02-26T07:24:32.462Z,3.7
2019-02-26T07:25:37.038Z,3.8
2019-02-26T07:26:38.734Z,3.8
2019-02-26T07:27:41.443Z,3.8
2019-02-26T07:28:45.912Z,3.8
2019-02-26T07:29:47.941Z,3.8
2019-02-26T07:30:50.449Z,3.7
2019-02-26T07:31:54.188Z,3.8
2019-02-26T07:32:56.447Z,3.9
2019-02-26T07:34:01.337Z,4.0
2019-02-26T07:35:04.045Z,4.2
2019-02-26T07:36:05.436Z,4.3
2019-02-26T07:37:09.322Z,4.6
2019-02-26T07:38:11.472Z,4.8
2019-02-26T07:39:15.436Z,5.0
2019-02-26T07:40:18.637Z,5.2
2019-02-26T07:41:20.693Z,5.4
2019-02-26T07:42:23.456Z,5.6
2019-02-26T07:43:26.447Z,5.9
2019-02-26T07:44:29.451Z,5.9
2019-02-26T07:45:32.454Z,6.0
2019-02-26T07:46:35.585Z,6.2
2019-02-26T07:47:38.441Z,6.3
2019-02-26T07:48:41.482Z,6.4
2019-02-26T07:49:44.454Z,6.5
2019-02-26T07:50:49.030Z,6.5
2019-02-26T07:51:50.455Z,6.7
2019-02-26T07:52:55.245Z,6.7
2019-02-26T07:53:58.196Z,6.9
2019-02-26T07:54:59.460Z,7.1
2019-02-26T07:56:04.417Z,7.1
2019-02-26T07:57:05.455Z,7.3
2019-02-26T07:58:09.163Z,7.5
2019-02-26T07:59:12.593Z,7.8
2019-02-26T08:00:14.442Z,7.9
2019-02-26T08:01:17.476Z,8.2
2019-02-26T08:02:20.441Z,8.6
2019-02-26T08:03:24.773Z,8.9
2019-02-26T08:04:26.447Z,9.1
2019-02-26T08:05:29.455Z,9.2
2019-02-26T08:06:33.830Z,9.2
2019-02-26T08:07:35.480Z,9.2
2019-02-26T08:08:40.157Z,9.1
2019-02-26T08:09:41.460Z,9.2
2019-02-26T08:10:45.353Z,9.4
2019-02-26T08:11:49.066Z,9.4
2019-02-26T08:12:50.461Z,9.6
2019-02-26T08:13:54.314Z,9.8
2019-02-26T08:14:56.458Z,9.8
2019-02-26T08:16:00.116Z,10.0
2019-02-26T08:17:03.880Z,10.3
2019-02-26T08:18:05.464Z,10.3
2019-02-26T08:19:08.466Z,10.1
2019-02-26T08:20:12.884Z,10.0
2019-02-26T08:21:14.473Z,9.9
2019-02-26T08:22:17.462Z,9.9
2019-02-26T08:23:21.669Z,10.0
2019-02-26T08:24:24.642Z,10.0
2019-02-26T08:25:26.468Z,10.1
2019-02-26T08:26:29.455Z,10.3
2019-02-26T08:27:33.850Z,10.5
2019-02-26T08:28:36.990Z,10.7
2019-02-26T08:29:38.470Z,11.1
2019-02-26T08:30:44.501Z,11.4
2019-02-26T08:31:46.659Z,11.6
2019-02-26T08:32:51.055Z,11.7
2019-02-26T08:33:51.830Z,11.7
2019-02-26T08:34:53.459Z,12.0
2019-02-26T08:35:56.460Z,12.3
2019-02-26T08:36:59.486Z,12.4
2019-02-26T08:38:05.615Z,12.4
2019-02-26T08:39:05.472Z,12.5
2019-02-26T08:40:09.513Z,12.3
2019-02-26T08:41:11.457Z,12.4
2019-02-26T08:42:14.458Z,12.3
2019-02-26T08:43:17.478Z,12.4
2019-02-26T08:44:20.460Z,12.4
2019-02-26T08:45:25.660Z,12.5
2019-02-26T08:46:26.472Z,12.6
2019-02-26T08:47:29.465Z,12.8
2019-02-26T08:48:32.483Z,13.0
2019-02-26T08:49:37.703Z,13.3
2019-02-26T08:50:39.084Z,13.5
2019-02-26T08:51:41.472Z,13.3
2019-02-26T08:52:46.879Z,13.4
2019-02-26T08:53:49.126Z,13.5
2019-02-26T08:54:50.481Z,13.5
2019-02-26T08:55:53.634Z,13.6
2019-02-26T08:56:56.473Z,13.7
2019-02-26T08:57:59.475Z,13.8
2019-02-26T08:59:03.618Z,14.0
2019-02-26T09:00:05.476Z,14.3
2019-02-26T09:01:08.466Z,14.4
2019-02-26T09:02:11.519Z,14.6
2019-02-26T09:03:15.584Z,14.7
2019-02-26T09:04:19.184Z,14.8
2019-02-26T09:05:20.484Z,14.8
2019-02-26T09:06:23.473Z,14.9
2019-02-26T09:07:26.488Z,15.1
2019-02-26T09:08:30.768Z,15.2
2019-02-26T09:09:32.815Z,15.4
2019-02-26T09:10:36.429Z,15.4
2019-02-26T09:11:39.477Z,15.4
2019-02-26T09:12:44.111Z,15.2
2019-02-26T09:13:45.469Z,15.1
2019-02-26T09:14:49.854Z,14.9
2019-02-26T09:15:51.488Z,14.7
2019-02-26T09:16:56.520Z,14.6
2019-02-26T09:17:57.492Z,14.7
2019-02-26T09:19:00.489Z,14.7
2019-02-26T09:20:09.469Z,14.6
2019-02-26T09:21:07.161Z,14.7
2019-02-26T09:22:11.750Z,15.0
2019-02-26T09:23:16.393Z,15.1
2019-02-26T09:24:15.474Z,15.4
2019-02-26T09:25:20.405Z,15.3
2019-02-26T09:26:21.502Z,15.2
2019-02-26T09:27:27.109Z,15.2
2019-02-26T09:28:29.447Z,15.1
2019-02-26T09:29:31.533Z,15.3
2019-02-26T09:30:35.906Z,15.5
2019-02-26T09:31:38.501Z,15.6
2019-02-26T09:32:42.868Z,15.7
2019-02-26T09:33:45.618Z,15.8
2019-02-26T09:34:48.524Z,15.8
2019-02-26T09:35:52.122Z,15.8
2019-02-26T09:36:55.564Z,16.0
2019-02-26T09:38:00.704Z,15.8
2019-02-26T09:39:00.500Z,16.0
2019-02-26T09:40:04.872Z,16.1
2019-02-26T09:41:06.498Z,16.1
2019-02-26T09:42:09.492Z,16.1
2019-02-26T09:43:14.699Z,16.1
2019-02-26T09:44:15.501Z,16.2
2019-02-26T09:45:20.415Z,16.2
2019-02-26T09:46:21.494Z,16.3
2019-02-26T09:47:25.980Z,16.4
2019-02-26T09:48:27.500Z,16.5
2019-02-26T09:49:31.459Z,16.7
2019-02-26T09:50:33.502Z,16.6
2019-02-26T09:51:37.609Z,16.5
2019-02-26T09:52:39.491Z,16.5
2019-02-26T09:53:42.498Z,16.5
2019-02-26T09:54:46.417Z,16.2
2019-02-26T09:55:48.493Z,16.0
2019-02-26T09:56:51.483Z,16.1
2019-02-26T09:57:54.498Z,16.1
2019-02-26T09:58:57.504Z,16.0
2019-02-26T10:00:02.867Z,16.1
2019-02-26T10:01:03.498Z,16.3
2019-02-26T10:02:06.510Z,16.4
2019-02-26T10:03:11.081Z,16.6
2019-02-26T10:04:12.494Z,16.5
2019-02-26T10:05:17.706Z,16.8
2019-02-26T10:06:19.300Z,16.8
2019-02-26T10:07:21.532Z,16.8
2019-02-26T10:08:25.358Z,16.7
2019-02-26T10:09:27.504Z,16.8
2019-02-26T10:10:31.208Z,16.6
2019-02-26T10:11:33.503Z,16.5
2019-02-26T10:12:37.098Z,16.5
2019-02-26T10:13:41.486Z,16.8
2019-02-26T10:14:42.502Z,16.8
2019-02-26T10:15:45.507Z,17.0
2019-02-26T10:16:51.400Z,17.0
2019-02-26T10:17:51.518Z,17.0
2019-02-26T10:18:56.679Z,16.8
2019-02-26T10:19:59.229Z,16.7
2019-02-26T10:21:00.528Z,16.7
2019-02-26T10:22:06.384Z,16.5
2019-02-26T10:23:06.539Z,16.4
2019-02-26T10:24:09.503Z,16.5
2019-02-26T10:25:12.522Z,16.5
2019-02-26T10:26:15.522Z,16.6
2019-02-26T10:27:18.513Z,16.6
2019-02-26T10:28:21.908Z,16.7
2019-02-26T10:29:24.514Z,16.8
2019-02-26T10:30:28.326Z,16.7
2019-02-26T10:31:30.520Z,16.8
2019-02-26T10:32:33.633Z,16.6
2019-02-26T10:33:38.202Z,16.4
2019-02-26T10:34:40.040Z,16.4
2019-02-26T10:35:45.087Z,16.5
2019-02-26T10:36:47.280Z,16.5
2019-02-26T10:37:48.508Z,16.7
2019-02-26T10:38:53.162Z,16.8
2019-02-26T10:39:54.917Z,16.8
2019-02-26T10:40:59.201Z,16.7
2019-02-26T10:42:02.542Z,16.6
2019-02-26T10:43:03.598Z,16.6
2019-02-26T10:44:06.524Z,16.5
2019-02-26T10:45:09.527Z,16.4
2019-02-26T10:46:12.517Z,16.2
2019-02-26T10:47:15.567Z,16.1
2019-02-26T10:48:21.553Z,16.0
2019-02-26T10:49:22.021Z,16.1
2019-02-26T10:50:30.953Z,16.1
2019-02-26T10:51:28.014Z,16.1
2019-02-26T10:52:31.023Z,16.4
2019-02-26T10:53:34.207Z,16.7
2019-02-26T10:54:40.400Z,16.8
2019-02-26T10:55:41.813Z,17.0
2019-02-26T10:56:44.888Z,17.1
2019-02-26T10:57:47.835Z,17.2
2019-02-26T10:58:49.530Z,17.1
2019-02-26T10:59:56.930Z,17.2
2019-02-26T11:00:58.559Z,17.2
2019-02-26T11:02:00.420Z,17.2
2019-02-26T11:03:01.555Z,17.3
2019-02-26T11:04:04.737Z,17.2
2019-02-26T11:05:08.733Z,17.1
2019-02-26T11:06:13.230Z,17.2
2019-02-26T11:07:14.292Z,17.1
2019-02-26T11:08:16.563Z,16.9
2019-02-26T11:09:21.999Z,16.9
2019-02-26T11:10:23.251Z,16.9
2019-02-26T11:11:25.533Z,16.9
2019-02-26T11:12:30.691Z,16.9
2019-02-26T11:13:31.528Z,16.9
2019-02-26T11:14:36.323Z,17.0
2019-02-26T11:15:37.528Z,17.0
2019-02-26T11:16:40.562Z,16.9
2019-02-26T11:17:45.583Z,16.7
2019-02-26T11:18:47.669Z,16.7
2019-02-26T11:19:49.783Z,16.9
2019-02-26T11:20:55.909Z,17.0
2019-02-26T11:21:58.257Z,17.0
2019-02-26T11:22:59.050Z,17.0
2019-02-26T11:24:03.674Z,17.0
2019-02-26T11:25:05.030Z,17.1
2019-02-26T11:26:10.561Z,17.2
2019-02-26T11:27:11.028Z,17.4
2019-02-26T11:28:14.183Z,17.6
2019-02-26T11:29:17.543Z,17.6
2019-02-26T11:30:23.702Z,17.5
2019-02-26T11:31:25.531Z,17.4
2019-02-26T11:32:28.314Z,17.3
2019-02-26T11:33:30.668Z,17.2
2019-02-26T11:34:35.664Z,17.2
2019-02-26T11:35:36.543Z,17.4
2019-02-26T11:36:40.986Z,17.6
2019-02-26T11:37:44.886Z,17.9
2019-02-26T11:38:46.928Z,18.1
2019-02-26T11:39:48.550Z,18.2
2019-02-26T11:40:51.547Z,18.0
2019-02-26T11:41:56.293Z,17.7
2019-02-26T11:42:59.607Z,17.7
2019-02-26T11:44:00.556Z,17.7
2019-02-26T11:45:06.633Z,17.6
2019-02-26T11:46:08.428Z,17.6
2019-02-26T11:47:11.022Z,17.6
2019-02-26T11:48:12.594Z,17.6
2019-02-26T11:49:16.930Z,17.6
2019-02-26T11:50:18.550Z,17.6
2019-02-26T11:51:21.552Z,17.8
2019-02-26T11:52:24.548Z,18.0
2019-02-26T11:53:29.594Z,18.2
2019-02-26T11:54:32.663Z,18.4
2019-02-26T11:55:36.834Z,18.5
2019-02-26T11:56:38.509Z,18.7
2019-02-26T11:57:39.851Z,18.6
2019-02-26T11:58:42.543Z,18.6
2019-02-26T11:59:45.558Z,18.4
2019-02-26T12:00:50.628Z,18.7
2019-02-26T12:01:51.605Z,18.9
2019-02-26T12:02:54.550Z,19.0
2019-02-26T12:04:02.529Z,19.0
2019-02-26T12:05:02.644Z,18.8
2019-02-26T12:06:03.564Z,18.7
2019-02-26T12:07:07.426Z,18.7
2019-02-26T12:08:11.306Z,18.6
2019-02-26T12:09:14.203Z,18.7
2019-02-26T12:10:15.557Z,18.7
2019-02-26T12:11:20.410Z,18.5
2019-02-26T12:12:23.478Z,18.4
2019-02-26T12:13:25.043Z,18.4
2019-02-26T12:14:27.560Z,18.5
2019-02-26T12:15:32.947Z,18.6
2019-02-26T12:16:33.553Z,18.6
2019-02-26T12:17:36.558Z,18.5
2019-02-26T12:18:41.489Z,18.6
2019-02-26T12:19:42.571Z,18.6
2019-02-26T12:20:48.017Z,18.7
2019-02-26T12:21:49.436Z,18.9
2019-02-26T12:22:52.463Z,18.9
2019-02-26T12:23:54.558Z,18.8
2019-02-26T12:24:58.771Z,18.7
2019-02-26T12:26:02.044Z,18.7
2019-02-26T12:27:03.575Z,18.6
2019-02-26T12:28:08.171Z,18.6
2019-02-26T12:29:09.559Z,18.5
2019-02-26T12:30:13.331Z,18.3
2019-02-26T12:31:15.565Z,18.5
2019-02-26T12:32:19.970Z,18.6
2019-02-26T12:33:21.581Z,18.6
2019-02-26T12:34:24.561Z,18.5
2019-02-26T12:35:29.508Z,18.6
2019-02-26T12:36:32.529Z,18.6
2019-02-26T12:37:33.573Z,18.7
2019-02-26T12:38:36.766Z,18.8
2019-02-26T12:39:39.579Z,19.0
2019-02-26T12:40:44.633Z,19.1
2019-02-26T12:41:47.603Z,19.1
2019-02-26T12:42:48.565Z,19.2
2019-02-26T12:43:51.570Z,19.2
2019-02-26T12:44:57.240Z,19.2
2019-02-26T12:45:59.375Z,19.0
2019-02-26T12:47:40.586Z,19.1
2019-02-26T12:48:44.370Z,18.9
2019-02-26T12:49:45.112Z,18.7
2019-02-26T12:50:47.429Z,18.7
2019-02-26T12:51:53.460Z,18.6
2019-02-26T12:52:53.849Z,18.4
2019-02-26T12:53:56.426Z,18.5
2019-02-26T12:55:00.804Z,18.5
2019-02-26T12:56:12.191Z,18.7
2019-02-26T12:57:16.998Z,18.6
2019-02-26T12:58:20.554Z,18.7
2019-02-26T12:59:21.444Z,18.5
2019-02-26T13:00:24.445Z,18.6
2019-02-26T13:01:27.436Z,18.7
2019-02-26T13:02:30.439Z,18.7
2019-02-26T13:03:35.990Z,18.7
2019-02-26T13:04:37.594Z,18.7
2019-02-26T13:05:41.954Z,18.7
2019-02-26T13:06:45.276Z,18.6
2019-02-26T13:07:45.440Z,18.7
2019-02-26T13:08:50.457Z,18.7
2019-02-26T13:09:54.798Z,18.8
2019-02-26T13:10:56.129Z,19.1
2019-02-26T13:12:02.418Z,19.1
2019-02-26T13:13:02.992Z,19.2
2019-02-26T13:14:03.450Z,19.3
2019-02-26T13:15:09.735Z,19.4
2019-02-26T13:16:10.448Z,19.4
2019-02-26T13:17:13.966Z,19.4
2019-02-26T13:18:16.459Z,19.3
2019-02-26T13:19:21.967Z,19.4
2019-02-26T13:20:22.442Z,19.4
2019-02-26T13:21:25.442Z,19.2
2019-02-26T13:22:28.494Z,19.3
2019-02-26T13:23:31.454Z,19.4
2019-02-26T13:24:34.446Z,19.3
2019-02-26T13:25:37.463Z,19.3
2019-02-26T13:26:43.467Z,19.3
2019-02-26T13:27:46.724Z,19.3
2019-02-26T13:28:52.056Z,19.2
2019-02-26T13:29:54.536Z,19.2
2019-02-26T13:30:52.452Z,19.1
2019-02-26T13:31:59.082Z,19.2
2019-02-26T13:33:00.960Z,19.2
2019-02-26T13:34:01.537Z,19.2
2019-02-26T13:35:07.447Z,19.2
2019-02-26T13:36:07.456Z,19.2
2019-02-26T13:37:10.451Z,19.2
2019-02-26T13:38:13.471Z,19.2
2019-02-26T13:39:21.962Z,19.2
2019-02-26T13:40:19.460Z,19.3
2019-02-26T13:41:29.573Z,19.4
2019-02-26T13:42:25.460Z,19.5
2019-02-26T13:43:28.654Z,19.5
2019-02-26T13:44:31.470Z,19.5
2019-02-26T13:45:34.464Z,19.5
2019-02-26T13:46:37.455Z,19.5
2019-02-26T13:47:40.464Z,19.5
2019-02-26T13:48:43.490Z,19.4
2019-02-26T13:49:46.464Z,19.5
2019-02-26T13:50:49.469Z,19.4
2019-02-26T13:51:52.486Z,19.3
2019-02-26T13:52:55.467Z,19.4
2019-02-26T13:53:58.463Z,19.5
2019-02-26T13:55:01.480Z,19.5
2019-02-26T13:56:04.479Z,19.6
2019-02-26T13:57:09.128Z,19.6
2019-02-26T13:58:11.880Z,19.7
2019-02-26T13:59:13.524Z,19.7
2019-02-26T14:00:19.842Z,19.7
2019-02-26T14:01:19.480Z,19.7
2019-02-26T14:02:22.515Z,19.8
2019-02-26T14:03:25.460Z,19.7
2019-02-26T14:04:28.471Z,19.7
2019-02-26T14:05:37.920Z,19.6
2019-02-26T14:06:34.480Z,19.6
2019-02-26T14:07:37.471Z,19.6
2019-02-26T14:08:40.474Z,19.5
2019-02-26T14:09:43.464Z,19.6
2019-02-26T14:10:46.474Z,19.6
2019-02-26T14:11:49.478Z,19.6
2019-02-26T14:12:52.461Z,19.6
2019-02-26T14:13:55.516Z,19.6
2019-02-26T14:14:58.469Z,19.6
2019-02-26T14:16:01.466Z,19.7
2019-02-26T14:17:04.467Z,19.8